createdAt,value
2023-02-17T00:01:23.813Z,97454.59
2023-02-17T00:03:53.711Z,97460.84
2023-02-17T00:06:23.999Z,97464.25
2023-02-17T00:08:52.470Z,97462.00
2023-02-17T00:11:22.280Z,97462.94
2023-02-17T00:13:50.079Z,97456.06
2023-02-17T00:16:20.583Z,97456.19
2023-02-17T00:18:49.272Z,97457.06
2023-02-17T00:21:18.760Z,97457.06
2023-02-17T00:23:48.201Z,97454.44
2023-02-17T00:26:17.568Z,97447.25
2023-02-17T00:28:47.775Z,97441.16
2023-02-17T00:31:19.833Z,97436.56
2023-02-17T00:33:47.841Z,97444.63
2023-02-17T00:36:18.595Z,97444.44
2023-02-17T00:38:48.916Z,97441.81
2023-02-17T00:41:16.824Z,97437.97
2023-02-17T00:43:46.540Z,97447.50
2023-02-17T00:46:17.641Z,97439.75
2023-02-17T00:48:46.418Z,97433.63
2023-02-17T00:51:16.765Z,97430.94
2023-02-17T00:53:44.855Z,97437.88
2023-02-17T00:56:13.878Z,97436.19
2023-02-17T00:58:42.423Z,97447.78
2023-02-17T01:01:12.624Z,97445.78
2023-02-17T01:03:42.477Z,97444.84
2023-02-17T01:06:17.717Z,97444.09
2023-02-17T01:08:45.549Z,97445.78
2023-02-17T01:11:18.502Z,97445.00
2023-02-17T01:13:46.378Z,97443.06
2023-02-17T01:16:21.010Z,97442.66
2023-02-17T01:18:49.739Z,97433.00
2023-02-17T01:21:21.703Z,97427.38
2023-02-17T01:23:50.163Z,97430.91
2023-02-17T01:26:19.833Z,97414.31
2023-02-17T01:28:48.512Z,97411.59
2023-02-17T01:31:20.300Z,97414.22
2023-02-17T01:33:50.148Z,97414.06
2023-02-17T01:36:20.656Z,97414.84
2023-02-17T01:38:49.182Z,97407.09
2023-02-17T01:41:21.303Z,97404.56
2023-02-17T01:44:14.068Z,97403.72
2023-02-17T01:46:43.344Z,97402.53
2023-02-17T01:49:32.535Z,97396.25
2023-02-17T01:52:05.969Z,97391.94
2023-02-17T01:54:39.076Z,97391.59
2023-02-17T01:57:11.821Z,97390.00
2023-02-17T01:59:41.365Z,97390.06
2023-02-17T02:02:09.754Z,97394.41
2023-02-17T02:04:42.164Z,97401.34
2023-02-17T02:07:15.493Z,97395.06
2023-02-17T02:09:49.783Z,97397.88
2023-02-17T02:12:21.203Z,97391.94
2023-02-17T02:14:50.343Z,97388.44
2023-02-17T02:17:30.528Z,97392.09
2023-02-17T02:20:29.558Z,97392.25
2023-02-17T02:23:30.274Z,97389.63
2023-02-17T02:26:19.460Z,97385.38
2023-02-17T02:29:08.806Z,97386.16
2023-02-17T02:31:47.296Z,97382.69
2023-02-17T02:34:21.925Z,97382.69
2023-02-17T02:36:57.708Z,97377.34
2023-02-17T02:39:30.908Z,97374.47
2023-02-17T02:42:03.244Z,97369.13
2023-02-17T02:44:31.675Z,97368.19
2023-02-17T02:47:00.827Z,97372.53
2023-02-17T02:49:32.843Z,97373.38
2023-02-17T02:52:11.543Z,97372.44
2023-02-17T02:54:48.050Z,97361.91
2023-02-17T02:57:39.191Z,97360.41
2023-02-17T03:00:16.613Z,97357.69
2023-02-17T03:02:52.383Z,97358.78
2023-02-17T03:05:29.874Z,97345.72
2023-02-17T03:08:03.223Z,97350.13
2023-02-17T03:10:31.538Z,97343.03
2023-02-17T03:12:59.657Z,97342.16
2023-02-17T03:15:31.185Z,97335.13
2023-02-17T03:18:02.220Z,97336.13
2023-02-17T03:20:35.378Z,97330.72
2023-02-17T03:23:05.512Z,97317.84
2023-02-17T03:25:33.617Z,97323.75
2023-02-17T03:28:01.634Z,97324.63
2023-02-17T03:30:29.785Z,97323.59
2023-02-17T03:32:57.702Z,97326.97
2023-02-17T03:35:25.528Z,97341.25
2023-02-17T03:37:54.773Z,97338.59
2023-02-17T03:40:22.809Z,97338.75
2023-02-17T03:42:50.661Z,97343.34
2023-02-17T03:45:18.739Z,97348.53
2023-02-17T03:47:46.600Z,97348.66
2023-02-17T03:50:14.427Z,97345.63
2023-02-17T03:52:42.330Z,97344.66
2023-02-17T03:55:11.627Z,97352.56
2023-02-17T03:57:39.409Z,97350.88
2023-02-17T04:00:09.390Z,97349.00
2023-02-17T04:02:44.293Z,97348.25
2023-02-17T04:05:12.918Z,97343.75
2023-02-17T04:07:41.264Z,97347.16
2023-02-17T04:10:11.488Z,97348.84
2023-02-17T04:12:39.334Z,97351.53
2023-02-17T04:15:07.914Z,97359.28
2023-02-17T04:17:37.658Z,97354.94
2023-02-17T04:20:08.795Z,97348.84
2023-02-17T04:22:36.748Z,97360.13
2023-02-17T04:25:05.056Z,97363.53
2023-02-17T04:27:34.271Z,97372.06
2023-02-17T04:30:04.637Z,97364.78
2023-02-17T04:32:32.531Z,97363.09
2023-02-17T04:35:00.435Z,97372.59
2023-02-17T04:37:28.354Z,97368.13
2023-02-17T04:39:57.056Z,97357.44
2023-02-17T04:42:25.030Z,97357.44
2023-02-17T04:44:54.262Z,97348.88
2023-02-17T04:47:22.949Z,97349.41
2023-02-17T04:49:50.817Z,97344.22
2023-02-17T04:52:18.672Z,97343.13
2023-02-17T04:54:46.519Z,97333.28
2023-02-17T04:57:14.470Z,97335.13
2023-02-17T04:59:42.406Z,97335.91
2023-02-17T05:02:11.616Z,97341.09
2023-02-17T05:04:39.557Z,97340.00
2023-02-17T05:07:07.447Z,97330.31
2023-02-17T05:09:35.299Z,97325.97
2023-02-17T05:12:05.573Z,97330.22
2023-02-17T05:14:33.418Z,97323.09
2023-02-17T05:17:01.307Z,97324.97
2023-02-17T05:19:30.576Z,97325.06
2023-02-17T05:21:58.444Z,97326.91
2023-02-17T05:24:26.315Z,97322.50
2023-02-17T05:26:54.653Z,97325.13
2023-02-17T05:29:23.335Z,97319.81
2023-02-17T05:31:51.288Z,97323.28
2023-02-17T05:34:19.159Z,97327.75
2023-02-17T05:36:48.407Z,97329.38
2023-02-17T05:39:16.479Z,97327.50
2023-02-17T05:41:44.296Z,97324.81
2023-02-17T05:44:12.168Z,97325.66
2023-02-17T05:46:40.211Z,97325.56
2023-02-17T05:49:08.619Z,97324.44
2023-02-17T05:51:36.514Z,97332.25
2023-02-17T05:54:06.128Z,97337.28
2023-02-17T05:56:34.323Z,97342.28
2023-02-17T05:59:02.202Z,97341.34
2023-02-17T06:01:30.531Z,97349.91
2023-02-17T06:03:58.723Z,97359.50
2023-02-17T06:06:26.751Z,97355.84
2023-02-17T06:08:54.602Z,97353.19
2023-02-17T06:11:24.552Z,97362.81
2023-02-17T06:13:52.358Z,97363.59
2023-02-17T06:16:20.750Z,97369.59
2023-02-17T06:18:48.720Z,97372.38
2023-02-17T06:21:16.608Z,97369.75
2023-02-17T06:23:44.497Z,97369.75
2023-02-17T06:26:12.360Z,97372.31
2023-02-17T06:28:41.581Z,97374.09
2023-02-17T06:31:09.734Z,97371.47
2023-02-17T06:33:37.882Z,97382.00
2023-02-17T06:36:06.869Z,97377.56
2023-02-17T06:38:34.982Z,97387.06
2023-02-17T06:41:03.076Z,97385.41
2023-02-17T06:43:31.124Z,97394.03
2023-02-17T06:46:00.438Z,97386.06
2023-02-17T06:48:28.500Z,97388.75
2023-02-17T06:50:56.417Z,97385.97
2023-02-17T06:53:24.480Z,97382.41
2023-02-17T06:55:52.956Z,97385.03
2023-02-17T06:58:21.190Z,97391.13
2023-02-17T07:00:49.153Z,97392.84
2023-02-17T07:03:18.505Z,97394.53
2023-02-17T07:05:46.443Z,97405.06
2023-02-17T07:08:14.566Z,97398.78
2023-02-17T07:10:42.615Z,97411.84
2023-02-17T07:13:10.544Z,97404.81
2023-02-17T07:15:38.482Z,97405.75
2023-02-17T07:18:06.757Z,97415.44
2023-02-17T07:20:38.192Z,97414.41
2023-02-17T07:23:07.164Z,97416.09
2023-02-17T07:25:35.089Z,97417.81
2023-02-17T07:28:03.051Z,97425.59
2023-02-17T07:30:31.237Z,97425.34
2023-02-17T07:32:59.526Z,97429.78
2023-02-17T07:35:27.832Z,97415.78
2023-02-17T07:37:59.659Z,97425.28
2023-02-17T07:40:28.907Z,97428.75
2023-02-17T07:42:58.391Z,97431.97
2023-02-17T07:45:26.588Z,97419.75
2023-02-17T07:47:54.856Z,97421.38
2023-02-17T07:50:23.486Z,97427.41
2023-02-17T07:52:52.092Z,97432.56
2023-02-17T07:55:21.349Z,97439.59
2023-02-17T07:57:49.266Z,97438.59
2023-02-17T08:00:18.435Z,97445.56
2023-02-17T08:02:46.331Z,97441.06
2023-02-17T08:05:14.261Z,97449.69
2023-02-17T08:07:42.234Z,97458.38
2023-02-17T08:10:31.087Z,97451.81
2023-02-17T08:13:18.010Z,97445.78
2023-02-17T08:15:45.847Z,97449.03
2023-02-17T08:18:14.158Z,97446.13
2023-02-17T08:20:42.046Z,97451.22
2023-02-17T08:23:10.012Z,97444.94
2023-02-17T08:25:38.428Z,97441.28
2023-02-17T08:28:08.302Z,97442.88
2023-02-17T08:30:38.786Z,97442.69
2023-02-17T08:33:06.922Z,97448.72
2023-02-17T08:35:34.803Z,97453.84
2023-02-17T08:38:02.724Z,97459.69
2023-02-17T08:40:30.700Z,97465.59
2023-02-17T08:42:58.534Z,97448.63
2023-02-17T08:45:27.817Z,97446.56
2023-02-17T08:47:56.062Z,97444.50
2023-02-17T08:50:24.087Z,97453.16
2023-02-17T08:52:52.104Z,97447.84
2023-02-17T08:55:22.911Z,97439.94
2023-02-17T08:57:50.915Z,97441.66
2023-02-17T09:00:19.632Z,97440.78
2023-02-17T09:02:48.931Z,97438.19
2023-02-17T09:05:16.777Z,97447.75
2023-02-17T09:07:44.844Z,97448.69
2023-02-17T09:10:13.956Z,97446.81
2023-02-17T09:12:42.224Z,97450.28
2023-02-17T09:15:10.706Z,97438.72
2023-02-17T09:17:41.050Z,97434.28
2023-02-17T09:20:24.095Z,97435.81
2023-02-17T09:22:52.921Z,97427.72
2023-02-17T09:25:20.966Z,97424.91
2023-02-17T09:27:48.867Z,97431.78
2023-02-17T09:30:16.920Z,97433.41
2023-02-17T09:32:45.352Z,97440.28
2023-02-17T09:35:16.106Z,97430.47
2023-02-17T09:37:44.388Z,97421.44
2023-02-17T09:40:18.635Z,97422.88
2023-02-17T09:42:46.851Z,97419.75
2023-02-17T09:45:20.426Z,97428.22
2023-02-17T09:47:50.886Z,97434.19
2023-02-17T09:50:24.830Z,97439.38
2023-02-17T09:52:58.159Z,97446.97
2023-02-17T09:55:30.072Z,97445.69
2023-02-17T09:58:00.955Z,97446.88
2023-02-17T10:00:33.758Z,97456.78
2023-02-17T10:03:08.475Z,97453.66
2023-02-17T10:05:44.644Z,97461.84
2023-02-17T10:08:18.475Z,97458.56
2023-02-17T10:10:51.879Z,97457.31
2023-02-17T10:13:23.121Z,97456.25
2023-02-17T10:15:53.625Z,97464.31
2023-02-17T10:18:27.556Z,97468.72
2023-02-17T10:21:04.877Z,97462.59
2023-02-17T10:23:32.920Z,97463.25
2023-02-17T10:26:19.693Z,97475.22
2023-02-17T10:28:53.331Z,97476.59
2023-02-17T10:31:39.197Z,97477.72
2023-02-17T10:34:14.805Z,97480.41
2023-02-17T10:36:52.938Z,97468.31
2023-02-17T10:39:36.493Z,97464.78
2023-02-17T10:42:05.999Z,97454.94
2023-02-17T10:44:37.897Z,97453.59
2023-02-17T10:47:06.777Z,97458.50
2023-02-17T10:49:39.529Z,97454.72
2023-02-17T10:52:15.654Z,97447.53
2023-02-17T10:54:48.056Z,97451.16
2023-02-17T10:57:18.254Z,97454.84
2023-02-17T10:59:48.196Z,97449.34
2023-02-17T11:02:20.318Z,97443.75
2023-02-17T11:04:50.882Z,97459.84
2023-02-17T11:07:27.350Z,97452.84
2023-02-17T11:10:00.465Z,97446.19
2023-02-17T11:12:30.519Z,97450.75
2023-02-17T11:14:58.877Z,97441.41
2023-02-17T11:17:30.542Z,97447.38
2023-02-17T11:20:03.992Z,97438.44
2023-02-17T11:22:37.062Z,97435.91
2023-02-17T11:25:08.851Z,97438.03
2023-02-17T11:27:36.887Z,97434.31
2023-02-17T11:30:10.938Z,97423.22
2023-02-17T11:32:39.334Z,97426.00
2023-02-17T11:35:23.587Z,97419.81
2023-02-17T11:37:56.350Z,97428.09
2023-02-17T11:40:27.025Z,97430.00
2023-02-17T11:42:59.813Z,97439.09
2023-02-17T11:45:33.514Z,97428.50
2023-02-17T11:48:24.572Z,97413.78
2023-02-17T11:50:58.876Z,97416.66
2023-02-17T11:53:47.982Z,97411.47
2023-02-17T11:56:19.591Z,97417.72
2023-02-17T11:59:03.490Z,97420.47
2023-02-17T12:01:49.563Z,97424.69
2023-02-17T12:04:27.477Z,97423.84
2023-02-17T12:07:21.355Z,97428.22
2023-02-17T12:10:01.756Z,97426.41
2023-02-17T12:12:44.893Z,97427.34
2023-02-17T12:15:28.441Z,97432.53
2023-02-17T12:18:09.666Z,97428.97
2023-02-17T12:20:49.793Z,97437.84
2023-02-17T12:23:49.935Z,97431.59
2023-02-17T12:26:32.646Z,97436.91
2023-02-17T12:29:13.537Z,97434.44
2023-02-17T12:31:57.534Z,97432.63
2023-02-17T12:34:32.845Z,97428.31
2023-02-17T12:37:02.022Z,97426.50
2023-02-17T12:39:34.529Z,97427.03
2023-02-17T12:42:08.541Z,97425.84
2023-02-17T12:44:41.229Z,97421.97
2023-02-17T12:47:16.014Z,97407.53
2023-02-17T12:49:50.759Z,97410.06
2023-02-17T12:52:20.728Z,97415.16
2023-02-17T12:54:54.110Z,97415.28
2023-02-17T12:57:26.085Z,97409.00
2023-02-17T12:59:54.940Z,97411.44
2023-02-17T13:02:24.214Z,97398.84
2023-02-17T13:04:54.428Z,97404.13
2023-02-17T13:07:42.670Z,97416.31
2023-02-17T13:10:23.031Z,97409.41
2023-02-17T13:13:01.764Z,97399.66
2023-02-17T13:15:33.711Z,97408.69
2023-02-17T13:18:03.500Z,97405.28
2023-02-17T13:20:56.129Z,97407.94
2023-02-17T13:23:39.197Z,97408.91
2023-02-17T13:26:24.508Z,97416.09
2023-02-17T13:28:55.871Z,97402.88
2023-02-17T13:31:25.812Z,97409.66
2023-02-17T13:33:55.726Z,97418.31
2023-02-17T13:36:36.669Z,97406.25
2023-02-17T13:39:08.584Z,97410.34
2023-02-17T13:41:46.868Z,97404.34
2023-02-17T13:44:31.712Z,97406.03
2023-02-17T13:47:02.076Z,97406.69
2023-02-17T13:49:33.978Z,97405.81
2023-02-17T13:52:10.516Z,97408.13
2023-02-17T13:54:38.438Z,97400.91
2023-02-17T13:57:06.418Z,97406.00
2023-02-17T13:59:38.114Z,97411.19
2023-02-17T14:02:35.109Z,97406.41
2023-02-17T14:05:17.892Z,97411.69
2023-02-17T14:08:01.067Z,97396.66
2023-02-17T14:10:29.213Z,97400.25
2023-02-17T14:12:57.936Z,97390.63
2023-02-17T14:15:29.213Z,97393.91
2023-02-17T14:17:58.029Z,97392.63
2023-02-17T14:20:31.903Z,97394.91
2023-02-17T14:23:05.768Z,97398.75
2023-02-17T14:25:35.861Z,97398.53
2023-02-17T14:28:05.009Z,97395.88
2023-02-17T14:30:36.702Z,97393.91
2023-02-17T14:33:09.309Z,97395.06
2023-02-17T14:35:39.524Z,97398.19
2023-02-17T14:38:09.783Z,97404.41
2023-02-17T14:40:40.024Z,97408.97
2023-02-17T14:43:08.046Z,97404.53
2023-02-17T14:45:37.242Z,97408.69
2023-02-17T14:48:05.551Z,97408.03
2023-02-17T14:50:33.878Z,97406.59
2023-02-17T14:53:01.756Z,97408.81
2023-02-17T14:55:35.958Z,97403.53
2023-02-17T14:58:04.988Z,97396.41
2023-02-17T15:00:33.023Z,97405.19
2023-02-17T15:03:02.237Z,97389.53
2023-02-17T15:05:30.134Z,97402.69
2023-02-17T15:08:01.302Z,97397.38
2023-02-17T15:10:30.387Z,97396.88
2023-02-17T15:12:58.416Z,97403.53
2023-02-17T15:15:26.294Z,97395.69
2023-02-17T15:17:54.150Z,97384.34
2023-02-17T15:20:23.368Z,97390.09
2023-02-17T15:22:52.890Z,97386.59
2023-02-17T15:25:23.199Z,97386.81
2023-02-17T15:27:51.460Z,97384.69
2023-02-17T15:30:20.232Z,97387.66
2023-02-17T15:32:48.724Z,97374.75
2023-02-17T15:35:18.930Z,97365.97
2023-02-17T15:37:48.245Z,97370.44
2023-02-17T15:40:18.174Z,97361.09
2023-02-17T15:42:50.175Z,97365.66
2023-02-17T15:45:20.367Z,97360.59
2023-02-17T15:47:49.292Z,97364.06
2023-02-17T15:50:20.644Z,97378.38
2023-02-17T15:52:51.366Z,97372.31
2023-02-17T15:55:20.249Z,97370.56
2023-02-17T15:57:50.870Z,97371.59
2023-02-17T16:00:24.464Z,97371.59
2023-02-17T16:02:52.820Z,97370.75
2023-02-17T16:05:23.158Z,97359.41
2023-02-17T16:07:52.676Z,97367.47
2023-02-17T16:10:25.048Z,97370.13
2023-02-17T16:12:54.467Z,97364.94
2023-02-17T16:15:24.470Z,97373.91
2023-02-17T16:17:52.891Z,97380.06
2023-02-17T16:20:24.320Z,97371.38
2023-02-17T16:22:53.581Z,97367.97
2023-02-17T16:25:23.553Z,97361.75
2023-02-17T16:27:53.074Z,97358.47
2023-02-17T16:30:23.975Z,97361.25
2023-02-17T16:32:53.923Z,97358.78
2023-02-17T16:35:25.593Z,97356.13
2023-02-17T16:37:57.778Z,97357.94
2023-02-17T16:40:28.106Z,97369.47
2023-02-17T16:42:56.681Z,97367.78
2023-02-17T16:45:26.198Z,97370.53
2023-02-17T16:47:55.886Z,97375.84
2023-02-17T16:50:26.573Z,97378.56
2023-02-17T16:52:57.693Z,97384.69
2023-02-17T16:55:29.161Z,97392.94
2023-02-17T16:57:57.373Z,97387.66
2023-02-17T17:00:29.682Z,97399.06
2023-02-17T17:02:58.431Z,97394.84
2023-02-17T17:05:29.006Z,97392.19
2023-02-17T17:07:58.414Z,97394.84
2023-02-17T17:10:29.155Z,97396.63
2023-02-17T17:12:57.801Z,97388.72
2023-02-17T17:15:25.906Z,97403.72
2023-02-17T17:17:58.055Z,97402.03
2023-02-17T17:20:31.014Z,97399.50
2023-02-17T17:23:01.169Z,97400.34
2023-02-17T17:25:29.789Z,97391.66
2023-02-17T17:27:58.577Z,97404.03
2023-02-17T17:30:29.569Z,97403.19
2023-02-17T17:32:57.444Z,97412.94
2023-02-17T17:35:25.519Z,97412.06
2023-02-17T17:37:53.342Z,97412.19
2023-02-17T17:40:24.319Z,97416.59
2023-02-17T17:42:52.678Z,97416.59
2023-02-17T17:45:20.859Z,97398.22
2023-02-17T17:47:48.828Z,97415.84
2023-02-17T17:50:18.911Z,97405.38
2023-02-17T17:52:47.612Z,97403.66
2023-02-17T17:55:16.462Z,97408.09
2023-02-17T17:57:45.744Z,97415.19
2023-02-17T18:00:16.746Z,97417.84
2023-02-17T18:02:44.632Z,97421.31
2023-02-17T18:05:13.033Z,97422.28
2023-02-17T18:07:42.301Z,97420.38
2023-02-17T18:10:13.870Z,97422.16
2023-02-17T18:12:43.128Z,97417.00
2023-02-17T18:15:13.113Z,97427.44
2023-02-17T18:17:43.024Z,97429.94
2023-02-17T18:20:12.539Z,97437.09
2023-02-17T18:22:40.821Z,97442.28
2023-02-17T18:25:09.308Z,97438.91
2023-02-17T18:27:42.771Z,97444.94
2023-02-17T18:30:19.123Z,97451.94
2023-02-17T18:32:47.636Z,97456.25
2023-02-17T18:35:15.896Z,97454.63
2023-02-17T18:37:45.045Z,97459.84
2023-02-17T18:40:15.939Z,97460.78
2023-02-17T18:42:45.465Z,97463.53
2023-02-17T18:45:16.436Z,97469.75
2023-02-17T18:47:45.496Z,97474.00
2023-02-17T18:50:15.000Z,97468.81
2023-02-17T18:52:44.215Z,97477.53
2023-02-17T18:55:12.687Z,97482.81
2023-02-17T18:57:40.906Z,97481.00
2023-02-17T19:00:10.787Z,97486.34
2023-02-17T19:02:41.349Z,97483.69
2023-02-17T19:05:12.458Z,97488.09
2023-02-17T19:07:40.412Z,97485.50
2023-02-17T19:10:09.699Z,97496.88
2023-02-17T19:12:37.965Z,97493.38
2023-02-17T19:15:06.222Z,97502.06
2023-02-17T19:17:34.212Z,97519.69
2023-02-17T19:20:03.683Z,97526.78
2023-02-17T19:22:31.613Z,97531.22
2023-02-17T19:24:59.473Z,97528.59
2023-02-17T19:27:27.375Z,97528.63
2023-02-17T19:29:55.328Z,97531.41
2023-02-17T19:32:23.154Z,97525.25
2023-02-17T19:34:51.096Z,97530.53
2023-02-17T19:37:20.271Z,97536.88
2023-02-17T19:39:48.085Z,97526.28
2023-02-17T19:42:16.013Z,97528.22
2023-02-17T19:44:43.920Z,97538.78
2023-02-17T19:47:11.798Z,97540.69
2023-02-17T19:49:39.689Z,97540.69
2023-02-17T19:52:07.799Z,97544.25
2023-02-17T19:54:38.015Z,97550.59
2023-02-17T19:57:05.883Z,97562.13
2023-02-17T19:59:34.475Z,97553.31
2023-02-17T20:02:02.977Z,97559.56
2023-02-17T20:04:31.485Z,97564.94
2023-02-17T20:06:59.401Z,97569.16
2023-02-17T20:09:27.312Z,97575.34
2023-02-17T20:11:56.776Z,97577.84
2023-02-17T20:14:24.982Z,97581.47
2023-02-17T20:16:55.601Z,97581.53
2023-02-17T20:19:24.077Z,97582.59
2023-02-17T20:21:52.618Z,97578.25
2023-02-17T20:24:20.991Z,97590.72
2023-02-17T20:26:50.912Z,97577.72
2023-02-17T20:29:20.448Z,97578.44
2023-02-17T20:31:48.486Z,97584.69
2023-02-17T20:34:28.576Z,97584.59
2023-02-17T20:36:57.336Z,97580.34
2023-02-17T20:39:26.313Z,97580.44
2023-02-17T20:41:54.751Z,97589.22
2023-02-17T20:44:27.733Z,97586.56
2023-02-17T20:46:57.044Z,97597.13
2023-02-17T20:49:25.694Z,97594.50
2023-02-17T20:51:53.741Z,97592.81
2023-02-17T20:54:21.683Z,97588.56
2023-02-17T20:56:49.918Z,97582.34
2023-02-17T20:59:17.798Z,97594.69
2023-02-17T21:01:47.190Z,97592.97
2023-02-17T21:04:15.314Z,97584.34
2023-02-17T21:06:45.649Z,97588.66
2023-02-17T21:09:17.028Z,97596.59
2023-02-17T21:11:45.659Z,97597.53
2023-02-17T21:14:14.324Z,97594.91
2023-02-17T21:16:42.683Z,97585.25
2023-02-17T21:19:11.872Z,97595.75
2023-02-17T21:21:40.944Z,97593.19
2023-02-17T21:24:08.974Z,97600.28
2023-02-17T21:26:37.044Z,97595.81
2023-02-17T21:29:05.274Z,97587.91
2023-02-17T21:31:33.371Z,97584.50
2023-02-17T21:34:01.404Z,97579.22
2023-02-17T21:36:30.935Z,97568.84
2023-02-17T21:38:59.118Z,97559.88
2023-02-17T21:41:29.802Z,97561.69
2023-02-17T21:44:15.228Z,97551.13
2023-02-17T21:46:44.084Z,97550.28
2023-02-17T21:49:13.045Z,97548.56
2023-02-17T21:51:42.543Z,97551.13
2023-02-17T21:54:11.294Z,97546.75
2023-02-17T21:56:39.628Z,97542.22
2023-02-17T21:59:08.079Z,97544.88
2023-02-17T22:01:36.000Z,97541.19
2023-02-17T22:04:04.307Z,97536.88
2023-02-17T22:06:37.746Z,97535.06
2023-02-17T22:09:08.889Z,97535.06
2023-02-17T22:11:39.531Z,97535.91
2023-02-17T22:14:10.277Z,97533.38
2023-02-17T22:16:38.229Z,97527.97
2023-02-17T22:19:08.169Z,97542.97
2023-02-17T22:21:36.147Z,97545.63
2023-02-17T22:24:04.367Z,97549.22
2023-02-17T22:26:33.602Z,97551.00
2023-02-17T22:29:01.578Z,97555.44
2023-02-17T22:31:31.782Z,97550.28
2023-02-17T22:34:01.725Z,97561.69
2023-02-17T22:36:33.310Z,97562.53
2023-02-17T22:39:01.830Z,97574.06
2023-02-17T22:41:29.980Z,97573.19
2023-02-17T22:44:00.687Z,97567.91
2023-02-17T22:46:28.882Z,97558.28
2023-02-17T22:48:58.004Z,97555.72
2023-02-17T22:51:28.024Z,97556.56
2023-02-17T22:53:55.882Z,97560.16
2023-02-17T22:56:24.972Z,97568.09
2023-02-17T22:58:56.476Z,97561.13
2023-02-17T23:01:26.295Z,97558.50
2023-02-17T23:03:54.998Z,97561.13
2023-02-17T23:06:25.500Z,97559.34
2023-02-17T23:08:54.038Z,97561.13
2023-02-17T23:11:44.398Z,97552.44
2023-02-17T23:14:13.497Z,97551.50
2023-02-17T23:16:42.808Z,97547.06
2023-02-17T23:19:12.477Z,97539.25
2023-02-17T23:21:44.428Z,97551.56
2023-02-17T23:24:12.370Z,97545.28
2023-02-17T23:26:40.413Z,97545.38
2023-02-17T23:29:09.561Z,97535.63
2023-02-17T23:31:38.855Z,97542.72
2023-02-17T23:34:08.543Z,97539.25
2023-02-17T23:36:39.028Z,97545.44
2023-02-17T23:39:07.169Z,97541.88
2023-02-17T23:41:36.654Z,97542.81
2023-02-17T23:44:06.026Z,97541.13
2023-02-17T23:46:33.948Z,97538.56
2023-02-17T23:49:02.028Z,97536.88
2023-02-17T23:51:31.395Z,97544.91
2023-02-17T23:53:59.574Z,97532.53
2023-02-17T23:56:30.498Z,97535.16
2023-02-17T23:58:58.790Z,97538.03
